Time;durP1;ratioP1;P1;durP2;ratioP2;P2;SDS_P1;SDS_P2;PMS_P1;PMS_P2;Temp;Humidity;BMP_temperature;BMP_pressure;BME280_temperature;BME280_humidity;BME280_pressure;Samples;Min_cycle;Max_cycle;Signal;HPM_P1;HPM_P2
2021/01/13 00:02:26;;;;;;;1.63;0.90;;;3.40;99.90;;;;;;4942196;28;20614;-70
2021/01/13 00:05:15;;;;;;;4.13;1.30;;;3.40;99.90;;;;;;4941989;28;20622;-70
2021/01/13 00:07:59;;;;;;;5.67;1.70;;;3.40;99.90;;;;;;4949613;28;20645;-69
2021/01/13 00:10:44;;;;;;;5.40;1.40;;;3.50;99.90;;;;;;4939994;28;20744;-70
2021/01/13 00:13:28;;;;;;;12.43;2.10;;;3.40;99.90;;;;;;4963520;28;20773;-70
2021/01/13 00:16:14;;;;;;;3.00;1.53;;;3.40;99.90;;;;;;4955352;28;20684;-70
2021/01/13 00:18:59;;;;;;;3.97;1.10;;;3.40;99.90;;;;;;4963606;28;20994;-70
2021/01/13 00:21:49;;;;;;;4.00;1.20;;;3.30;99.90;;;;;;4964467;28;20705;-69
2021/01/13 00:24:36;;;;;;;4.07;1.63;;;3.20;99.90;;;;;;4950533;28;20740;-69
2021/01/13 00:27:34;;;;;;;5.40;1.37;;;3.20;99.90;;;;;;4941238;28;21036;-69
2021/01/13 00:30:20;;;;;;;3.50;0.97;;;3.30;99.90;;;;;;4961154;28;20641;-69
2021/01/13 00:33:06;;;;;;;5.30;1.30;;;3.30;99.90;;;;;;4951102;28;20797;-69
2021/01/13 00:35:51;;;;;;;3.17;1.33;;;3.30;99.90;;;;;;4951726;28;20594;-69
2021/01/13 00:38:35;;;;;;;3.10;1.20;;;3.30;99.90;;;;;;4951673;28;21178;-69
2021/01/13 00:41:22;;;;;;;3.00;1.20;;;3.20;99.90;;;;;;4947115;28;20836;-69
2021/01/13 00:44:07;;;;;;;2.27;0.87;;;3.30;99.90;;;;;;4967110;28;20649;-69
2021/01/13 00:46:52;;;;;;;3.10;0.90;;;3.30;99.90;;;;;;4954966;28;20622;-70
2021/01/13 00:49:36;;;;;;;5.50;1.17;;;3.50;99.90;;;;;;4958022;28;20656;-69
2021/01/13 00:52:21;;;;;;;1.67;0.80;;;3.40;99.90;;;;;;4958949;28;20633;-69
2021/01/13 00:55:06;;;;;;;5.37;1.20;;;3.40;99.90;;;;;;4985965;28;20618;-70
2021/01/13 00:57:50;;;;;;;2.30;0.80;;;3.40;99.90;;;;;;4958772;28;20970;-69
2021/01/13 01:00:35;;;;;;;5.97;1.53;;;3.30;99.90;;;;;;4951479;28;20657;-69
2021/01/13 01:03:20;;;;;;;3.23;1.53;;;3.20;99.90;;;;;;4941677;28;20709;-69
2021/01/13 01:06:07;;;;;;;6.97;1.73;;;3.20;99.90;;;;;;4950528;28;20661;-69
2021/01/13 01:08:52;;;;;;;3.37;1.80;;;3.20;99.90;;;;;;4967984;28;21993;-69
2021/01/13 01:11:38;;;;;;;5.20;1.90;;;3.10;99.90;;;;;;4947092;28;22090;-69
2021/01/13 01:14:22;;;;;;;7.13;2.30;;;3.10;99.90;;;;;;4948266;28;21299;-71
2021/01/13 01:17:10;;;;;;;7.37;1.57;;;3.10;99.90;;;;;;4968007;28;20650;-69
2021/01/13 01:19:57;;;;;;;6.67;1.80;;;3.20;99.90;;;;;;4960446;28;20722;-69
2021/01/13 01:22:55;;;;;;;5.30;1.90;;;3.20;99.90;;;;;;4967797;28;20909;-69
2021/01/13 01:25:39;;;;;;;5.90;1.57;;;3.20;99.90;;;;;;4947593;28;20609;-70
2021/01/13 01:28:26;;;;;;;2.60;1.23;;;3.20;99.90;;;;;;4956507;28;20701;-69
2021/01/13 01:31:11;;;;;;;10.33;1.53;;;3.20;99.90;;;;;;4943959;28;20661;-69
2021/01/13 01:33:55;;;;;;;4.23;1.70;;;3.30;99.90;;;;;;4964142;28;21029;-69
2021/01/13 01:36:40;;;;;;;4.10;1.10;;;3.30;99.90;;;;;;4958248;28;20601;-69
2021/01/13 01:39:24;;;;;;;6.77;1.33;;;3.20;99.90;;;;;;4950671;28;20669;-70
2021/01/13 01:42:15;;;;;;;3.97;1.03;;;3.20;99.90;;;;;;4935667;28;20614;-69
2021/01/13 01:45:02;;;;;;;3.37;1.40;;;3.10;99.90;;;;;;4955958;28;20766;-69
2021/01/13 01:47:52;;;;;;;2.70;1.10;;;3.10;99.90;;;;;;4955526;28;20685;-70
2021/01/13 01:50:41;;;;;;;5.00;1.07;;;3.20;99.90;;;;;;4924453;28;21017;-70
2021/01/13 01:53:50;;;;;;;3.00;0.90;;;3.20;99.90;;;;;;4940690;28;20764;-70
2021/01/13 01:56:40;;;;;;;2.60;1.20;;;3.20;99.90;;;;;;4957530;28;20605;-69
2021/01/13 01:59:42;;;;;;;3.60;0.90;;;3.20;99.90;;;;;;4953737;28;20605;-69
2021/01/13 02:02:39;;;;;;;3.30;1.10;;;3.20;99.90;;;;;;4932965;28;20585;-70
2021/01/13 02:05:27;;;;;;;4.80;1.00;;;3.20;99.90;;;;;;4955006;28;20585;-70
2021/01/13 02:08:21;;;;;;;3.67;1.30;;;3.20;99.90;;;;;;4971354;28;20986;-70
2021/01/13 02:11:13;;;;;;;4.60;0.97;;;3.20;99.90;;;;;;4952836;28;20716;-69
2021/01/13 02:13:59;;;;;;;4.20;1.43;;;3.30;99.90;;;;;;4960051;28;20782;-70
2021/01/13 02:16:56;;;;;;;2.47;0.87;;;3.30;99.90;;;;;;4971521;28;20598;-69
2021/01/13 02:19:49;;;;;;;5.73;1.30;;;3.30;99.90;;;;;;4956452;28;20736;-69
2021/01/13 02:22:39;;;;;;;4.17;1.00;;;3.30;99.90;;;;;;4940479;28;20538;-69
2021/01/13 02:25:35;;;;;;;2.77;1.10;;;3.30;99.90;;;;;;4961593;28;20589;-69
2021/01/13 02:28:22;;;;;;;3.20;1.03;;;3.30;99.90;;;;;;4966506;28;20899;-69
2021/01/13 02:31:28;;;;;;;2.73;1.33;;;3.30;99.90;;;;;;4940798;28;20649;-70
2021/01/13 02:34:35;;;;;;;2.50;0.90;;;3.30;99.90;;;;;;4962620;28;20665;-70
2021/01/13 02:37:40;;;;;;;9.10;1.43;;;3.30;99.90;;;;;;4968671;28;20744;-69
2021/01/13 02:40:28;;;;;;;6.33;1.87;;;3.30;99.90;;;;;;4964229;28;20657;-70
2021/01/13 02:43:14;;;;;;;5.80;1.50;;;3.40;99.90;;;;;;4972882;28;20661;-70
2021/01/13 02:46:01;;;;;;;7.70;1.70;;;3.40;99.90;;;;;;4957023;28;20915;-70
2021/01/13 02:48:57;;;;;;;3.43;1.53;;;3.40;99.90;;;;;;4957170;28;20632;-70
2021/01/13 02:51:45;;;;;;;5.20;1.87;;;3.50;99.90;;;;;;4952366;28;21106;-69
2021/01/13 02:54:32;;;;;;;4.07;1.23;;;3.50;99.90;;;;;;4955646;28;21254;-70
2021/01/13 02:57:28;;;;;;;5.83;1.63;;;3.50;99.90;;;;;;4948172;28;20621;-69
2021/01/13 03:00:13;;;;;;;5.17;1.30;;;3.50;99.90;;;;;;4965033;28;20653;-70
2021/01/13 03:03:01;;;;;;;3.87;1.20;;;3.40;99.90;;;;;;4967046;28;20660;-70
2021/01/13 03:05:49;;;;;;;3.13;1.20;;;3.50;99.90;;;;;;4922781;28;20642;-70
2021/01/13 03:08:45;;;;;;;3.70;1.20;;;3.60;99.90;;;;;;4935789;28;21234;-69
2021/01/13 03:11:30;;;;;;;6.50;1.93;;;3.60;99.90;;;;;;4950272;28;20646;-69
2021/01/13 03:14:18;;;;;;;5.10;1.33;;;3.60;99.90;;;;;;4960668;28;20821;-70
2021/01/13 03:17:09;;;;;;;6.90;1.60;;;3.50;99.90;;;;;;4964808;28;20674;-69
2021/01/13 03:20:33;;;;;;;5.30;1.50;;;3.50;99.90;;;;;;4946815;28;20645;-70
2021/01/13 03:23:28;;;;;;;6.70;1.47;;;3.50;99.90;;;;;;4931508;28;21210;-69
2021/01/13 03:26:21;;;;;;;5.53;1.60;;;3.40;99.90;;;;;;4937732;28;20712;-69
2021/01/13 03:29:08;;;;;;;7.07;1.67;;;3.40;99.90;;;;;;4954257;28;20650;-69
2021/01/13 03:32:08;;;;;;;4.53;1.47;;;3.40;99.90;;;;;;4955946;28;21036;-70
2021/01/13 03:35:14;;;;;;;5.23;1.77;;;3.40;99.90;;;;;;4957322;28;20930;-70
2021/01/13 03:38:00;;;;;;;2.97;1.70;;;3.40;99.90;;;;;;4957754;28;20625;-69
2021/01/13 03:40:49;;;;;;;9.33;1.63;;;3.50;99.90;;;;;;4967474;28;20675;-69
2021/01/13 03:43:38;;;;;;;2.90;1.50;;;3.50;99.90;;;;;;4983436;28;20992;-69
2021/01/13 03:46:23;;;;;;;5.17;1.63;;;3.50;99.90;;;;;;4954312;28;20649;-70
2021/01/13 03:49:08;;;;;;;8.23;2.03;;;3.40;99.90;;;;;;4952836;28;20597;-70
2021/01/13 03:52:07;;;;;;;8.70;1.60;;;3.40;99.90;;;;;;4966792;28;20736;-70
2021/01/13 03:54:54;;;;;;;5.40;1.60;;;3.50;99.90;;;;;;4959759;28;21253;-69
2021/01/13 03:57:47;;;;;;;4.70;1.30;;;3.40;99.90;;;;;;4947543;28;20955;-69
2021/01/13 04:00:59;;;;;;;4.30;1.70;;;3.40;99.90;;;;;;4938984;28;20950;-69
2021/01/13 04:04:16;;;;;;;3.43;1.30;;;3.30;99.90;;;;;;4964167;28;20652;-70
2021/01/13 04:07:02;;;;;;;6.57;1.63;;;3.40;99.90;;;;;;4955909;28;20586;-70
2021/01/13 04:09:47;;;;;;;6.70;1.53;;;3.50;99.90;;;;;;4952317;28;21290;-69
2021/01/13 04:12:42;;;;;;;8.40;2.00;;;3.50;99.90;;;;;;4946358;28;20721;-69
2021/01/13 04:15:39;;;;;;;7.23;1.60;;;3.30;99.90;;;;;;4969034;28;20735;-70
2021/01/13 04:18:24;;;;;;;3.53;1.57;;;3.20;99.90;;;;;;4951526;28;20637;-70
2021/01/13 04:21:13;;;;;;;4.10;2.20;;;3.20;99.90;;;;;;4951586;28;20774;-70
2021/01/13 04:24:00;;;;;;;6.20;1.93;;;3.20;99.90;;;;;;4924174;28;21010;-70
2021/01/13 04:26:44;;;;;;;1.47;1.20;;;3.20;99.90;;;;;;4884227;28;20658;-70
2021/01/13 04:29:29;;;;;;;2.60;1.73;;;3.20;99.90;;;;;;4945105;28;20746;-70
2021/01/13 04:32:15;;;;;;;4.90;1.77;;;3.30;99.90;;;;;;4948677;28;21056;-70
2021/01/13 04:35:00;;;;;;;2.53;1.20;;;3.30;99.90;;;;;;4955849;28;20738;-70
2021/01/13 04:37:47;;;;;;;3.00;1.60;;;3.30;99.90;;;;;;4938686;29;20617;-70
2021/01/13 04:40:33;;;;;;;3.17;1.40;;;3.20;99.90;;;;;;4968682;28;20633;-70
2021/01/13 04:43:23;;;;;;;7.50;3.07;;;3.10;99.90;;;;;;4952061;28;20657;-70
2021/01/13 04:46:34;;;;;;;6.90;2.00;;;3.00;99.90;;;;;;4942772;28;21172;-70
2021/01/13 04:49:19;;;;;;;1.47;1.30;;;3.00;99.90;;;;;;4947055;28;20598;-70
2021/01/13 04:52:29;;;;;;;2.90;1.47;;;3.00;99.90;;;;;;4950038;28;21188;-70
2021/01/13 04:55:26;;;;;;;3.37;1.50;;;3.00;99.90;;;;;;4940384;29;21188;-70
2021/01/13 04:58:20;;;;;;;2.70;1.53;;;3.10;99.90;;;;;;4944853;28;20595;-70
2021/01/13 05:01:16;;;;;;;2.03;1.30;;;3.00;99.90;;;;;;4958663;28;20657;-70
2021/01/13 05:04:22;;;;;;;3.97;1.50;;;2.90;99.90;;;;;;4942661;28;20645;-70
2021/01/13 05:07:34;;;;;;;2.40;1.97;;;2.90;99.90;;;;;;4966933;28;20605;-70
2021/01/13 05:10:21;;;;;;;6.30;2.10;;;2.90;99.90;;;;;;4966006;28;21247;-70
2021/01/13 05:13:06;;;;;;;6.43;2.80;;;3.00;99.90;;;;;;4962760;28;21089;-70
2021/01/13 05:15:57;;;;;;;4.03;1.87;;;3.00;99.90;;;;;;4962739;28;20673;-70
2021/01/13 05:18:50;;;;;;;4.43;2.30;;;3.00;99.90;;;;;;4953263;28;20829;-70
2021/01/13 05:21:40;;;;;;;3.50;2.00;;;2.90;99.90;;;;;;4950399;28;21491;-70
2021/01/13 05:24:31;;;;;;;3.00;2.00;;;3.10;99.90;;;;;;4942661;28;21316;-70
2021/01/13 05:27:46;;;;;;;9.07;2.63;;;3.00;99.90;;;;;;4939812;28;20590;-70
2021/01/13 05:30:39;;;;;;;3.03;2.30;;;3.10;99.90;;;;;;4925480;28;20637;-70
2021/01/13 05:33:24;;;;;;;2.10;1.73;;;3.10;99.90;;;;;;4962340;28;20912;-70
2021/01/13 05:36:16;;;;;;;5.33;2.13;;;3.10;99.90;;;;;;4948837;28;21206;-70
2021/01/13 05:39:11;;;;;;;9.20;3.13;;;3.10;99.90;;;;;;4961498;28;20673;-70
2021/01/13 05:42:01;;;;;;;6.70;2.47;;;3.10;99.90;;;;;;4945505;28;20801;-70
2021/01/13 05:44:48;;;;;;;8.60;2.73;;;3.20;99.90;;;;;;4966870;28;20736;-70
2021/01/13 05:47:48;;;;;;;4.33;2.23;;;3.10;99.90;;;;;;4951425;28;20634;-70
2021/01/13 05:50:34;;;;;;;3.90;2.47;;;3.10;99.90;;;;;;4949928;28;20629;-70
2021/01/13 05:53:19;;;;;;;8.83;2.77;;;3.10;99.90;;;;;;4966848;28;20660;-70
2021/01/13 05:56:05;;;;;;;5.03;2.30;;;3.10;99.90;;;;;;4963607;28;20573;-70
2021/01/13 05:59:10;;;;;;;3.37;2.10;;;3.10;99.90;;;;;;4957856;28;20653;-70
2021/01/13 06:01:58;;;;;;;5.53;2.50;;;3.20;99.90;;;;;;4948391;28;20743;-70
2021/01/13 06:04:46;;;;;;;4.17;2.60;;;3.10;99.90;;;;;;4945890;28;20636;-70
2021/01/13 06:07:33;;;;;;;6.23;3.03;;;3.10;99.90;;;;;;4965679;28;20609;-68
2021/01/13 06:10:19;;;;;;;4.90;2.50;;;3.10;99.90;;;;;;4949015;28;20695;-69
2021/01/13 06:13:05;;;;;;;6.10;3.13;;;3.10;99.90;;;;;;4952496;28;20800;-69
2021/01/13 06:15:58;;;;;;;5.27;2.53;;;3.20;99.90;;;;;;4926787;28;20652;-69
2021/01/13 06:18:49;;;;;;;4.67;3.17;;;3.20;99.90;;;;;;4936241;28;20672;-69
2021/01/13 06:21:34;;;;;;;4.40;2.80;;;3.30;99.90;;;;;;4940505;28;20653;-69
2021/01/13 06:24:19;;;;;;;6.73;2.83;;;3.30;99.90;;;;;;4963572;28;21239;-69
2021/01/13 06:27:21;;;;;;;4.33;2.70;;;3.30;99.90;;;;;;4970855;28;20598;-69
2021/01/13 06:30:26;;;;;;;5.33;2.93;;;3.30;99.90;;;;;;4958660;28;20665;-69
2021/01/13 06:33:25;;;;;;;7.10;3.30;;;3.30;99.90;;;;;;4965353;28;20672;-69
2021/01/13 06:36:19;;;;;;;8.90;3.77;;;3.30;99.90;;;;;;4954214;28;21207;-70
2021/01/13 06:39:11;;;;;;;7.17;3.83;;;3.30;99.90;;;;;;4955909;28;20594;-69
2021/01/13 06:41:56;;;;;;;4.90;3.43;;;3.20;99.90;;;;;;4902476;28;20639;-69
2021/01/13 06:44:45;;;;;;;8.67;3.73;;;3.30;99.90;;;;;;4890571;28;21572;-69
2021/01/13 06:47:32;;;;;;;5.60;3.20;;;3.40;99.90;;;;;;4909956;28;20645;-69
2021/01/13 06:50:47;;;;;;;5.50;3.00;;;3.30;99.90;;;;;;4912934;28;21608;-70
2021/01/13 06:53:36;;;;;;;7.33;3.50;;;3.30;99.90;;;;;;4855497;28;20790;-70
2021/01/13 06:56:24;;;;;;;8.43;3.37;;;3.40;99.90;;;;;;4841102;28;21806;-69
2021/01/13 06:59:09;;;;;;;7.83;3.53;;;3.40;99.90;;;;;;4854412;28;20749;-69
2021/01/13 07:02:00;;;;;;;7.30;3.10;;;3.50;99.90;;;;;;4919445;28;21625;-70
2021/01/13 07:04:48;;;;;;;6.67;3.13;;;3.40;99.90;;;;;;4915337;28;25647;-69
2021/01/13 07:07:40;;;;;;;8.07;3.57;;;3.20;99.90;;;;;;4922195;28;20727;-69
2021/01/13 07:10:26;;;;;;;9.20;3.20;;;3.20;99.90;;;;;;4950679;28;20721;-70
2021/01/13 07:13:12;;;;;;;5.90;2.80;;;3.30;99.90;;;;;;4940366;28;20660;-69
2021/01/13 07:16:04;;;;;;;6.70;3.03;;;3.30;99.90;;;;;;4965727;28;21124;-69
2021/01/13 07:18:49;;;;;;;5.50;2.03;;;3.40;99.90;;;;;;4937762;28;21288;-70
2021/01/13 07:21:41;;;;;;;4.23;2.90;;;3.30;99.90;;;;;;4942473;28;20965;-69
2021/01/13 07:24:28;;;;;;;3.87;2.77;;;3.40;99.90;;;;;;4944301;28;20728;-69
2021/01/13 07:27:14;;;;;;;4.00;2.87;;;3.50;99.90;;;;;;4951101;28;20601;-69
2021/01/13 07:30:00;;;;;;;6.83;2.70;;;3.50;99.90;;;;;;4959703;28;20715;-69
2021/01/13 07:32:57;;;;;;;3.60;2.53;;;3.60;99.90;;;;;;4962186;28;20659;-70
2021/01/13 07:35:47;;;;;;;5.77;3.17;;;3.50;99.90;;;;;;4961873;28;21167;-70
2021/01/13 07:38:33;;;;;;;5.27;2.47;;;3.50;99.90;;;;;;4963247;28;20653;-69
2021/01/13 07:42:08;;;;;;;4.03;2.60;;;3.50;99.90;;;;;;4933941;28;20650;-69
2021/01/13 07:45:02;;;;;;;4.10;2.20;;;3.60;99.90;;;;;;4928718;28;20952;-69
2021/01/13 07:47:56;;;;;;;3.83;2.20;;;3.60;99.90;;;;;;4920993;28;20625;-69
2021/01/13 07:50:43;;;;;;;4.10;2.43;;;3.50;99.90;;;;;;4954977;28;20649;-69
2021/01/13 07:53:29;;;;;;;6.30;2.20;;;3.50;99.90;;;;;;4943745;28;20677;-69
2021/01/13 07:56:14;;;;;;;6.83;2.40;;;3.50;99.90;;;;;;4945444;28;20582;-69
2021/01/13 07:59:35;;;;;;;4.77;2.50;;;3.50;99.90;;;;;;4923593;28;20634;-69
2021/01/13 08:02:44;;;;;;;4.97;2.40;;;3.40;99.90;;;;;;4918566;28;20646;-69
2021/01/13 08:06:17;;;;;;;3.70;2.20;;;3.40;99.90;;;;;;4913443;28;20614;-69
2021/01/13 08:09:13;;;;;;;6.57;2.77;;;3.20;99.90;;;;;;4908434;28;21481;-69
2021/01/13 08:12:09;;;;;;;4.40;1.80;;;3.20;99.90;;;;;;4918979;28;21280;-69
2021/01/13 08:15:31;;;;;;;7.20;2.37;;;3.20;99.90;;;;;;4895363;28;20613;-69
2021/01/13 08:18:53;;;;;;;6.37;3.13;;;3.30;99.90;;;;;;4899765;28;21226;-69
2021/01/13 08:21:44;;;;;;;11.63;2.67;;;3.30;99.90;;;;;;4909653;28;20759;-69
2021/01/13 08:24:43;;;;;;;6.07;2.10;;;3.20;99.90;;;;;;4916119;28;20656;-69
2021/01/13 08:27:31;;;;;;;4.63;2.07;;;3.20;99.90;;;;;;4916126;28;20615;-69
2021/01/13 08:30:16;;;;;;;6.00;2.07;;;3.30;99.90;;;;;;4940469;28;20652;-69
2021/01/13 08:33:03;;;;;;;5.70;2.13;;;3.30;99.90;;;;;;4954729;28;20720;-69
2021/01/13 08:35:49;;;;;;;6.20;2.10;;;3.30;99.90;;;;;;4946909;28;20664;-69
2021/01/13 08:38:34;;;;;;;4.80;2.80;;;3.30;99.90;;;;;;4936474;28;20624;-69
2021/01/13 08:41:25;;;;;;;8.47;2.23;;;3.50;99.90;;;;;;4953318;28;20640;-70
2021/01/13 08:44:12;;;;;;;5.40;1.87;;;3.50;99.90;;;;;;4926931;28;21250;-69
2021/01/13 08:47:03;;;;;;;4.20;1.90;;;3.50;99.90;;;;;;4908403;28;20626;-69
2021/01/13 08:49:48;;;;;;;4.23;1.67;;;3.50;99.90;;;;;;4880441;28;20726;-69
2021/01/13 08:52:46;;;;;;;4.00;1.87;;;3.40;99.90;;;;;;4942859;28;20741;-69
2021/01/13 08:55:34;;;;;;;3.77;1.50;;;3.50;99.90;;;;;;4966041;28;20589;-70
2021/01/13 08:58:52;;;;;;;2.17;1.40;;;3.50;99.90;;;;;;4955804;28;20980;-69
2021/01/13 09:01:38;;;;;;;3.30;1.57;;;3.50;99.90;;;;;;4950725;28;20654;-69
2021/01/13 09:04:25;;;;;;;2.10;1.50;;;3.50;99.90;;;;;;4952578;28;20744;-70
2021/01/13 09:07:13;;;;;;;5.83;1.63;;;3.50;99.90;;;;;;4940907;28;20617;-71
2021/01/13 09:10:07;;;;;;;3.67;1.60;;;3.60;99.90;;;;;;4955211;28;20637;-71
2021/01/13 09:12:51;;;;;;;4.63;1.73;;;3.50;99.90;;;;;;4955546;28;20673;-70
2021/01/13 09:15:36;;;;;;;4.47;1.80;;;3.60;99.90;;;;;;4939054;28;20708;-70
2021/01/13 09:18:23;;;;;;;5.63;1.70;;;3.60;99.90;;;;;;4938780;28;20602;-70
2021/01/13 09:21:11;;;;;;;3.10;1.60;;;3.50;99.90;;;;;;4955871;28;20649;-70
2021/01/13 09:23:57;;;;;;;4.57;2.17;;;3.70;99.90;;;;;;4968436;28;20649;-70
2021/01/13 09:26:56;;;;;;;7.97;2.53;;;3.70;99.90;;;;;;4956412;28;20680;-70
2021/01/13 09:29:48;;;;;;;5.10;2.43;;;3.80;99.90;;;;;;4956207;28;20744;-70
2021/01/13 09:32:50;;;;;;;8.47;2.50;;;3.80;99.90;;;;;;4939037;28;20799;-70
2021/01/13 09:35:46;;;;;;;2.90;1.70;;;3.90;99.90;;;;;;4956181;28;20617;-70
2021/01/13 09:38:36;;;;;;;6.27;2.60;;;3.90;99.90;;;;;;4942900;28;20651;-70
2021/01/13 09:41:25;;;;;;;2.77;2.03;;;4.00;99.90;;;;;;4952794;28;20820;-70
2021/01/13 09:44:13;;;;;;;5.83;2.10;;;4.00;99.90;;;;;;4952707;28;20657;-70
2021/01/13 09:46:59;;;;;;;5.50;2.13;;;4.00;99.90;;;;;;4954410;28;20625;-70
2021/01/13 09:49:48;;;;;;;6.50;1.93;;;4.00;99.90;;;;;;4943474;28;20732;-70
2021/01/13 09:52:42;;;;;;;7.07;2.10;;;4.10;99.90;;;;;;4942088;28;20597;-70
2021/01/13 09:55:28;;;;;;;4.87;1.63;;;4.10;99.90;;;;;;4937703;28;20626;-70
2021/01/13 09:58:25;;;;;;;9.80;2.03;;;4.10;99.90;;;;;;4939960;28;20656;-70
2021/01/13 10:01:17;;;;;;;4.50;1.90;;;4.20;99.90;;;;;;4917148;28;21459;-70
2021/01/13 10:04:08;;;;;;;7.97;2.80;;;4.30;99.90;;;;;;4940886;28;20782;-70
2021/01/13 10:06:56;;;;;;;4.53;1.53;;;4.30;99.90;;;;;;4925819;28;21156;-70
2021/01/13 10:09:45;;;;;;;4.73;2.00;;;4.40;99.90;;;;;;4884511;28;20689;-69
2021/01/13 10:12:49;;;;;;;6.97;1.83;;;4.50;99.90;;;;;;4869332;28;20656;-69
2021/01/13 10:15:33;;;;;;;4.47;1.70;;;4.60;99.90;;;;;;4889975;28;20613;-70
2021/01/13 10:18:18;;;;;;;3.83;1.87;;;4.60;99.90;;;;;;4913179;28;20734;-69
2021/01/13 10:21:03;;;;;;;5.97;1.80;;;4.70;99.90;;;;;;4925605;28;21583;-69
2021/01/13 10:23:49;;;;;;;7.13;1.73;;;4.70;99.90;;;;;;4917870;28;20728;-69
2021/01/13 10:26:39;;;;;;;8.63;2.20;;;4.80;99.90;;;;;;4942060;28;20717;-69
2021/01/13 10:29:24;;;;;;;5.87;2.10;;;4.80;99.90;;;;;;4942427;28;20984;-69
2021/01/13 10:32:09;;;;;;;4.50;1.50;;;4.80;99.90;;;;;;4959724;28;20613;-70
2021/01/13 10:34:54;;;;;;;3.73;1.70;;;4.70;99.90;;;;;;4957567;28;20648;-70
2021/01/13 10:37:50;;;;;;;10.43;2.20;;;4.80;99.90;;;;;;4942597;28;20661;-70
2021/01/13 10:40:34;;;;;;;3.77;2.37;;;4.70;99.90;;;;;;4933277;28;21257;-70
2021/01/13 10:43:22;;;;;;;4.93;1.83;;;4.80;99.90;;;;;;4949241;28;21223;-70
2021/01/13 10:46:07;;;;;;;3.60;1.70;;;4.80;99.90;;;;;;4951927;28;20601;-71
2021/01/13 10:48:54;;;;;;;7.43;4.00;;;4.70;99.90;;;;;;4944559;28;21227;-70
2021/01/13 10:51:46;;;;;;;6.03;2.37;;;4.80;99.90;;;;;;4965541;28;20633;-70
2021/01/13 10:54:38;;;;;;;7.10;1.83;;;4.60;99.90;;;;;;4978585;28;20672;-70
2021/01/13 10:57:31;;;;;;;3.70;1.70;;;4.70;99.90;;;;;;4942285;28;20605;-70
2021/01/13 11:00:17;;;;;;;4.57;2.13;;;4.70;99.90;;;;;;4953223;28;20636;-70
2021/01/13 11:03:02;;;;;;;4.43;2.37;;;4.80;99.90;;;;;;4962982;28;20746;-70
2021/01/13 11:05:47;;;;;;;6.33;1.80;;;4.90;99.90;;;;;;4920882;28;21249;-70
2021/01/13 11:08:36;;;;;;;3.80;1.87;;;4.80;99.90;;;;;;4931358;28;20597;-70
2021/01/13 11:11:21;;;;;;;11.00;8.87;;;4.80;99.90;;;;;;4952920;28;20658;-70
2021/01/13 11:14:08;;;;;;;15.97;9.47;;;4.70;99.90;;;;;;4951042;28;20660;-70
2021/01/13 11:17:06;;;;;;;10.30;8.63;;;4.80;99.90;;;;;;4949232;28;20612;-70
2021/01/13 11:19:55;;;;;;;6.40;2.17;;;5.00;99.90;;;;;;4946051;28;20637;-70
2021/01/13 11:22:45;;;;;;;5.93;2.20;;;5.00;99.90;;;;;;4967936;28;20609;-70
2021/01/13 11:25:37;;;;;;;4.37;1.83;;;5.10;99.90;;;;;;4951557;28;20573;-70
2021/01/13 11:28:27;;;;;;;8.00;2.20;;;5.10;99.90;;;;;;4973257;28;20617;-70
2021/01/13 11:31:15;;;;;;;5.33;2.27;;;5.20;99.90;;;;;;4946618;28;20736;-70
2021/01/13 11:34:02;;;;;;;5.00;2.00;;;5.20;99.90;;;;;;4960977;28;20688;-71
2021/01/13 11:37:01;;;;;;;6.70;1.87;;;5.20;99.90;;;;;;4963977;28;21156;-71
2021/01/13 11:39:54;;;;;;;7.80;2.30;;;5.20;99.90;;;;;;4942005;28;20725;-70
2021/01/13 11:43:04;;;;;;;4.57;2.37;;;5.20;99.90;;;;;;4952694;28;20586;-70
2021/01/13 11:45:56;;;;;;;9.93;2.43;;;5.40;99.90;;;;;;4970374;28;20783;-70
2021/01/13 11:49:20;;;;;;;3.30;1.73;;;5.40;99.90;;;;;;4923292;28;20621;-71
2021/01/13 11:52:08;;;;;;;4.73;2.30;;;5.50;99.90;;;;;;4954571;28;21390;-70
2021/01/13 11:54:54;;;;;;;7.50;1.70;;;5.60;99.90;;;;;;4965269;28;20677;-71
2021/01/13 11:57:45;;;;;;;7.83;1.90;;;5.60;99.90;;;;;;4958682;28;20781;-70
2021/01/13 12:00:38;;;;;;;5.93;2.00;;;5.60;99.90;;;;;;4941006;28;22027;-70
2021/01/13 12:03:23;;;;;;;7.80;1.83;;;5.70;99.90;;;;;;4959459;28;21044;-70
2021/01/13 12:06:09;;;;;;;6.63;2.07;;;5.70;99.90;;;;;;4946070;28;21038;-70
2021/01/13 12:08:54;;;;;;;7.20;2.10;;;5.70;99.90;;;;;;4947786;28;20645;-70
2021/01/13 12:11:39;;;;;;;5.67;2.03;;;5.70;99.90;;;;;;4944359;28;20653;-70
2021/01/13 12:14:24;;;;;;;8.57;2.20;;;5.60;99.90;;;;;;4964613;28;21164;-69
2021/01/13 12:17:09;;;;;;;6.27;2.10;;;5.60;99.90;;;;;;4945854;28;20590;-70
2021/01/13 12:20:00;;;;;;;7.50;2.30;;;5.60;99.90;;;;;;4959728;28;20690;-69
2021/01/13 12:22:44;;;;;;;7.47;2.43;;;5.50;99.90;;;;;;4931829;28;20739;-69
2021/01/13 12:25:29;;;;;;;4.23;1.63;;;5.40;99.90;;;;;;4963086;28;20714;-69
2021/01/13 12:28:14;;;;;;;6.10;1.53;;;5.50;99.90;;;;;;4980047;28;20617;-69
2021/01/13 12:30:58;;;;;;;5.97;2.07;;;5.50;99.90;;;;;;4971895;28;20685;-69
2021/01/13 12:33:57;;;;;;;6.17;1.70;;;5.60;99.90;;;;;;4944991;28;21286;-69
2021/01/13 12:36:46;;;;;;;7.60;2.30;;;5.40;99.90;;;;;;4953809;28;20582;-70
2021/01/13 12:39:41;;;;;;;5.27;2.60;;;5.50;99.90;;;;;;4948606;28;20577;-69
2021/01/13 12:42:30;;;;;;;6.40;1.93;;;5.50;99.90;;;;;;4959210;28;20622;-72
2021/01/13 12:45:15;;;;;;;6.13;2.00;;;5.60;99.90;;;;;;4964473;28;20602;-72
2021/01/13 12:48:00;;;;;;;3.83;1.80;;;5.60;99.90;;;;;;4948595;28;20793;-71
2021/01/13 12:50:46;;;;;;;5.73;1.90;;;5.60;99.90;;;;;;4958741;28;20650;-71
2021/01/13 12:53:31;;;;;;;6.47;1.80;;;5.60;99.90;;;;;;4960553;28;20723;-72
2021/01/13 12:56:31;;;;;;;6.63;2.10;;;5.60;99.90;;;;;;5006008;23;21058;-64
2021/01/13 12:59:16;;;;;;;5.47;1.60;;;5.60;99.90;;;;;;5007535;28;20623;-63
2021/01/13 13:02:00;;;;;;;1.93;0.97;;;5.40;99.90;;;;;;5007127;28;20678;-63
2021/01/13 13:04:45;;;;;;;2.60;1.13;;;5.00;99.90;;;;;;5015047;28;21161;-65
2021/01/13 13:07:32;;;;;;;1.33;0.70;;;4.60;99.90;;;;;;4993292;28;20951;-66
2021/01/13 13:10:16;;;;;;;1.40;0.73;;;4.40;99.90;;;;;;4986593;28;20631;-66
2021/01/13 13:13:00;;;;;;;0.70;0.70;;;4.10;99.90;;;;;;4984349;28;21186;-65
2021/01/13 13:15:45;;;;;;;1.67;0.50;;;4.00;99.90;;;;;;4990900;28;20651;-66
2021/01/13 13:18:29;;;;;;;2.30;0.60;;;3.90;99.90;;;;;;4986329;28;21182;-65
2021/01/13 13:21:15;;;;;;;0.80;0.50;;;3.80;99.90;;;;;;4982767;28;20691;-66
2021/01/13 13:23:59;;;;;;;1.07;0.50;;;3.60;99.90;;;;;;4975532;28;20599;-67
2021/01/13 13:26:44;;;;;;;0.60;0.60;;;3.60;99.90;;;;;;4990704;28;20709;-68
2021/01/13 13:29:28;;;;;;;0.80;0.60;;;3.60;99.90;;;;;;4983899;28;20596;-66
2021/01/13 13:32:14;;;;;;;0.67;0.67;;;3.60;99.90;;;;;;4997432;28;20627;-67
2021/01/13 13:34:58;;;;;;;1.20;0.67;;;3.50;99.90;;;;;;4984769;28;21068;-64
2021/01/13 13:37:43;;;;;;;1.13;0.63;;;3.40;99.90;;;;;;4981101;28;20588;-64
2021/01/13 13:40:27;;;;;;;1.10;0.70;;;3.30;99.90;;;;;;4984711;28;20640;-63
2021/01/13 13:43:12;;;;;;;2.30;0.90;;;3.30;99.90;;;;;;4990292;28;20592;-62
2021/01/13 13:45:56;;;;;;;1.37;0.60;;;3.20;99.90;;;;;;4993256;28;20742;-63
2021/01/13 13:48:41;;;;;;;0.60;0.60;;;3.20;99.90;;;;;;4999130;28;21178;-62
2021/01/13 13:51:25;;;;;;;1.23;0.90;;;3.10;99.90;;;;;;4958315;28;20734;-60
2021/01/13 13:54:10;;;;;;;1.93;0.83;;;3.00;99.90;;;;;;4979574;28;20727;-62
2021/01/13 13:56:55;;;;;;;1.80;0.83;;;3.10;99.90;;;;;;4989084;28;20663;-62
2021/01/13 13:59:40;;;;;;;2.27;1.20;;;3.00;99.90;;;;;;5000512;28;20658;-62
2021/01/13 14:02:24;;;;;;;1.90;1.00;;;3.00;99.90;;;;;;5003437;28;20579;-62
2021/01/13 14:05:09;;;;;;;2.13;1.10;;;3.00;99.90;;;;;;4991471;28;20674;-63
2021/01/13 14:07:54;;;;;;;2.90;1.13;;;3.10;99.90;;;;;;4988691;28;20799;-62
2021/01/13 14:10:38;;;;;;;4.97;1.67;;;3.10;99.90;;;;;;4986004;28;20730;-63
2021/01/13 14:13:23;;;;;;;3.63;1.17;;;3.10;99.90;;;;;;5005355;28;20953;-63
2021/01/13 14:16:08;;;;;;;6.10;1.63;;;3.00;99.90;;;;;;4978401;28;20718;-61
2021/01/13 14:18:55;;;;;;;4.63;1.67;;;3.10;99.90;;;;;;5009493;28;20662;-63
2021/01/13 14:21:40;;;;;;;5.70;1.67;;;3.10;99.90;;;;;;4995673;28;20702;-65
2021/01/13 14:24:27;;;;;;;4.93;1.47;;;3.10;99.90;;;;;;4989402;28;21139;-63
2021/01/13 14:27:11;;;;;;;4.33;1.70;;;3.30;99.90;;;;;;4992580;28;20725;-63
2021/01/13 14:29:58;;;;;;;6.80;2.43;;;3.20;99.90;;;;;;4992233;28;20719;-61
2021/01/13 14:32:53;;;;;;;8.03;2.67;;;3.30;99.90;;;;;;4999723;28;20611;-62
2021/01/13 14:35:37;;;;;;;4.23;2.30;;;3.40;99.90;;;;;;4996502;28;20667;-63
2021/01/13 14:38:22;;;;;;;7.37;2.03;;;3.30;99.90;;;;;;4995761;28;20638;-62
2021/01/13 14:41:06;;;;;;;6.73;1.93;;;3.40;99.90;;;;;;4995514;28;20743;-62
2021/01/13 14:43:50;;;;;;;8.03;1.90;;;3.50;99.90;;;;;;4986972;28;20623;-62
2021/01/13 14:46:35;;;;;;;6.63;1.93;;;3.60;99.90;;;;;;4997003;28;20639;-62
2021/01/13 14:49:19;;;;;;;11.20;2.30;;;3.70;99.90;;;;;;4984221;28;20603;-61
2021/01/13 14:52:09;;;;;;;14.70;2.90;;;3.60;99.90;;;;;;4981716;28;20789;-62
2021/01/13 14:54:53;;;;;;;6.50;2.37;;;3.50;99.90;;;;;;4989846;28;20672;-63
2021/01/13 14:57:40;;;;;;;8.03;2.90;;;3.40;99.90;;;;;;4985049;28;20584;-63
2021/01/13 15:00:27;;;;;;;13.20;2.80;;;3.40;99.90;;;;;;4987210;28;20714;-62